sensor_id;sensor_type;location;lat;lon;timestamp;temperature;humidity
30459;DHT22;17254;50.976;7.034;2022-09-06T00:00:02;19.80;99.90
30459;DHT22;17254;50.976;7.034;2022-09-06T00:00:42;19.80;99.90
30459;DHT22;17254;50.976;7.034;2022-09-06T00:01:15;19.90;99.90
30459;DHT22;17254;50.976;7.034;2022-09-06T00:01:47;19.90;99.90
30459;DHT22;17254;50.976;7.034;2022-09-06T00:02:19;19.90;99.90
30459;DHT22;17254;50.976;7.034;2022-09-06T00:02:49;19.90;99.90
30459;DHT22;17254;50.976;7.034;2022-09-06T00:03:23;19.90;99.90
30459;DHT22;17254;50.976;7.034;2022-09-06T00:03:54;19.90;99.90
30459;DHT22;17254;50.976;7.034;2022-09-06T00:04:26;19.90;99.90
30459;DHT22;17254;50.976;7.034;2022-09-06T00:04:57;19.90;99.90
30459;DHT22;17254;50.976;7.034;2022-09-06T00:05:28;19.90;99.90
30459;DHT22;17254;50.976;7.034;2022-09-06T00:06:05;19.90;99.90
30459;DHT22;17254;50.976;7.034;2022-09-06T00:06:36;19.90;99.90
30459;DHT22;17254;50.976;7.034;2022-09-06T00:07:07;19.90;99.90
30459;DHT22;17254;50.976;7.034;2022-09-06T00:07:40;19.90;99.90
30459;DHT22;17254;50.976;7.034;2022-09-06T00:08:11;19.90;99.90
30459;DHT22;17254;50.976;7.034;2022-09-06T00:08:43;19.90;99.90
30459;DHT22;17254;50.976;7.034;2022-09-06T00:09:15;19.90;99.90
30459;DHT22;17254;50.976;7.034;2022-09-06T00:09:46;20.00;99.90
30459;DHT22;17254;50.976;7.034;2022-09-06T00:10:17;19.90;99.90
30459;DHT22;17254;50.976;7.034;2022-09-06T00:10:55;20.00;99.90
30459;DHT22;17254;50.976;7.034;2022-09-06T00:11:28;20.00;99.90
30459;DHT22;17254;50.976;7.034;2022-09-06T00:11:59;20.00;99.90
30459;DHT22;17254;50.976;7.034;2022-09-06T00:12:30;20.00;99.90
30459;DHT22;17254;50.976;7.034;2022-09-06T00:13:03;20.00;99.90
30459;DHT22;17254;50.976;7.034;2022-09-06T00:13:35;20.00;99.90
30459;DHT22;17254;50.976;7.034;2022-09-06T00:14:07;20.00;99.90
30459;DHT22;17254;50.976;7.034;2022-09-06T00:14:37;20.10;99.90
30459;DHT22;17254;50.976;7.034;2022-09-06T00:15:09;20.00;99.90
30459;DHT22;17254;50.976;7.034;2022-09-06T00:15:41;20.10;99.90
30459;DHT22;17254;50.976;7.034;2022-09-06T00:16:14;20.00;99.90
30459;DHT22;17254;50.976;7.034;2022-09-06T00:16:45;20.10;99.90
30459;DHT22;17254;50.976;7.034;2022-09-06T00:17:17;20.10;99.90
30459;DHT22;17254;50.976;7.034;2022-09-06T00:17:48;20.10;99.90
30459;DHT22;17254;50.976;7.034;2022-09-06T00:18:22;20.10;99.90
30459;DHT22;17254;50.976;7.034;2022-09-06T00:18:54;20.10;99.90
30459;DHT22;17254;50.976;7.034;2022-09-06T00:19:25;20.20;99.90
30459;DHT22;17254;50.976;7.034;2022-09-06T00:19:57;20.20;99.90
30459;DHT22;17254;50.976;7.034;2022-09-06T00:20:30;20.10;99.90
30459;DHT22;17254;50.976;7.034;2022-09-06T00:21:02;20.20;99.90
30459;DHT22;17254;50.976;7.034;2022-09-06T00:21:33;20.20;99.90
30459;DHT22;17254;50.976;7.034;2022-09-06T00:22:05;20.20;99.90
30459;DHT22;17254;50.976;7.034;2022-09-06T00:22:37;20.30;99.90
30459;DHT22;17254;50.976;7.034;2022-09-06T00:23:08;20.30;99.90
30459;DHT22;17254;50.976;7.034;2022-09-06T00:23:39;20.30;99.90
30459;DHT22;17254;50.976;7.034;2022-09-06T00:24:11;20.30;99.90
30459;DHT22;17254;50.976;7.034;2022-09-06T00:24:42;20.40;99.90
30459;DHT22;17254;50.976;7.034;2022-09-06T00:25:13;20.40;99.90
30459;DHT22;17254;50.976;7.034;2022-09-06T00:25:45;20.40;99.90
30459;DHT22;17254;50.976;7.034;2022-09-06T00:26:16;20.50;99.90
30459;DHT22;17254;50.976;7.034;2022-09-06T00:26:47;20.50;99.90
30459;DHT22;17254;50.976;7.034;2022-09-06T00:27:19;20.50;99.90
30459;DHT22;17254;50.976;7.034;2022-09-06T00:27:53;20.60;99.90
30459;DHT22;17254;50.976;7.034;2022-09-06T00:28:24;20.60;99.90
30459;DHT22;17254;50.976;7.034;2022-09-06T00:28:56;20.60;99.90
30459;DHT22;17254;50.976;7.034;2022-09-06T00:29:27;20.60;99.90
30459;DHT22;17254;50.976;7.034;2022-09-06T00:29:59;20.60;99.90
30459;DHT22;17254;50.976;7.034;2022-09-06T00:30:32;20.50;99.90
30459;DHT22;17254;50.976;7.034;2022-09-06T00:31:10;20.50;99.90
30459;DHT22;17254;50.976;7.034;2022-09-06T00:31:41;20.40;99.90
30459;DHT22;17254;50.976;7.034;2022-09-06T00:32:13;20.30;99.90
30459;DHT22;17254;50.976;7.034;2022-09-06T00:32:44;20.20;99.90
30459;DHT22;17254;50.976;7.034;2022-09-06T00:33:15;20.10;99.90
30459;DHT22;17254;50.976;7.034;2022-09-06T00:33:49;20.00;99.90
30459;DHT22;17254;50.976;7.034;2022-09-06T00:34:20;19.80;99.90
30459;DHT22;17254;50.976;7.034;2022-09-06T00:34:51;19.70;99.90
30459;DHT22;17254;50.976;7.034;2022-09-06T00:35:23;19.70;99.90
30459;DHT22;17254;50.976;7.034;2022-09-06T00:35:58;19.70;99.90
30459;DHT22;17254;50.976;7.034;2022-09-06T00:36:29;19.60;99.90
30459;DHT22;17254;50.976;7.034;2022-09-06T00:37:01;19.60;99.90
30459;DHT22;17254;50.976;7.034;2022-09-06T00:37:32;19.40;99.90
30459;DHT22;17254;50.976;7.034;2022-09-06T00:38:04;19.40;99.90
30459;DHT22;17254;50.976;7.034;2022-09-06T00:38:35;19.20;99.90
30459;DHT22;17254;50.976;7.034;2022-09-06T00:39:06;19.20;99.90
30459;DHT22;17254;50.976;7.034;2022-09-06T00:39:38;19.10;99.90
30459;DHT22;17254;50.976;7.034;2022-09-06T00:40:10;19.00;99.90
30459;DHT22;17254;50.976;7.034;2022-09-06T00:40:41;19.00;99.90
30459;DHT22;17254;50.976;7.034;2022-09-06T00:41:14;19.10;99.90
30459;DHT22;17254;50.976;7.034;2022-09-06T00:41:46;19.30;99.90
30459;DHT22;17254;50.976;7.034;2022-09-06T00:42:17;19.30;99.90
30459;DHT22;17254;50.976;7.034;2022-09-06T00:42:49;19.10;99.90
30459;DHT22;17254;50.976;7.034;2022-09-06T00:43:20;19.00;99.90
30459;DHT22;17254;50.976;7.034;2022-09-06T00:43:51;19.00;99.90
30459;DHT22;17254;50.976;7.034;2022-09-06T00:44:23;19.10;99.90
30459;DHT22;17254;50.976;7.034;2022-09-06T00:44:54;19.10;99.90
30459;DHT22;17254;50.976;7.034;2022-09-06T00:45:26;19.00;99.90
30459;DHT22;17254;50.976;7.034;2022-09-06T00:45:58;18.90;99.90
30459;DHT22;17254;50.976;7.034;2022-09-06T00:46:31;18.80;99.90
30459;DHT22;17254;50.976;7.034;2022-09-06T00:47:03;18.80;99.90
30459;DHT22;17254;50.976;7.034;2022-09-06T00:47:35;18.80;99.90
30459;DHT22;17254;50.976;7.034;2022-09-06T00:48:08;18.70;99.90
30459;DHT22;17254;50.976;7.034;2022-09-06T00:48:40;18.70;99.90
30459;DHT22;17254;50.976;7.034;2022-09-06T00:49:16;18.70;99.90
30459;DHT22;17254;50.976;7.034;2022-09-06T00:49:55;18.60;99.90
30459;DHT22;17254;50.976;7.034;2022-09-06T00:50:27;18.70;99.90
30459;DHT22;17254;50.976;7.034;2022-09-06T00:51:01;18.60;99.90
30459;DHT22;17254;50.976;7.034;2022-09-06T00:51:35;18.70;99.90
30459;DHT22;17254;50.976;7.034;2022-09-06T00:52:09;18.60;99.90
30459;DHT22;17254;50.976;7.034;2022-09-06T00:52:42;18.60;99.90
30459;DHT22;17254;50.976;7.034;2022-09-06T00:53:16;18.50;99.90
30459;DHT22;17254;50.976;7.034;2022-09-06T00:53:48;18.50;99.90
30459;DHT22;17254;50.976;7.034;2022-09-06T00:54:19;18.50;99.90
30459;DHT22;17254;50.976;7.034;2022-09-06T00:54:52;18.60;99.90
30459;DHT22;17254;50.976;7.034;2022-09-06T00:55:23;18.60;99.90
30459;DHT22;17254;50.976;7.034;2022-09-06T00:55:55;18.60;99.90
30459;DHT22;17254;50.976;7.034;2022-09-06T00:56:28;18.60;99.90
30459;DHT22;17254;50.976;7.034;2022-09-06T00:57:01;18.60;99.90
30459;DHT22;17254;50.976;7.034;2022-09-06T00:57:32;18.60;99.90
30459;DHT22;17254;50.976;7.034;2022-09-06T00:58:09;18.50;99.90
30459;DHT22;17254;50.976;7.034;2022-09-06T00:58:40;18.50;99.90
30459;DHT22;17254;50.976;7.034;2022-09-06T00:59:11;18.50;99.90
30459;DHT22;17254;50.976;7.034;2022-09-06T00:59:45;18.50;99.90
30459;DHT22;17254;50.976;7.034;2022-09-06T01:00:18;18.50;99.90
30459;DHT22;17254;50.976;7.034;2022-09-06T01:00:49;18.50;99.90
30459;DHT22;17254;50.976;7.034;2022-09-06T01:01:21;18.60;99.90
30459;DHT22;17254;50.976;7.034;2022-09-06T01:01:52;18.60;99.90
30459;DHT22;17254;50.976;7.034;2022-09-06T01:02:23;18.60;99.90
30459;DHT22;17254;50.976;7.034;2022-09-06T01:02:54;18.60;99.90
30459;DHT22;17254;50.976;7.034;2022-09-06T01:03:26;18.60;99.90
30459;DHT22;17254;50.976;7.034;2022-09-06T01:03:58;18.60;99.90
30459;DHT22;17254;50.976;7.034;2022-09-06T01:04:31;18.60;99.90
30459;DHT22;17254;50.976;7.034;2022-09-06T01:05:05;18.60;99.90
30459;DHT22;17254;50.976;7.034;2022-09-06T01:05:44;18.60;99.90
30459;DHT22;17254;50.976;7.034;2022-09-06T01:06:21;18.50;99.90
30459;DHT22;17254;50.976;7.034;2022-09-06T01:07:01;18.60;99.90
30459;DHT22;17254;50.976;7.034;2022-09-06T01:07:47;18.60;99.90
30459;DHT22;17254;50.976;7.034;2022-09-06T01:08:27;18.60;99.90
30459;DHT22;17254;50.976;7.034;2022-09-06T01:09:07;18.60;99.90
30459;DHT22;17254;50.976;7.034;2022-09-06T01:09:52;18.70;99.90
30459;DHT22;17254;50.976;7.034;2022-09-06T01:10:35;18.60;99.90
30459;DHT22;17254;50.976;7.034;2022-09-06T01:11:27;18.70;99.90
30459;DHT22;17254;50.976;7.034;2022-09-06T01:12:21;18.70;99.90
30459;DHT22;17254;50.976;7.034;2022-09-06T01:13:02;18.60;99.90
30459;DHT22;17254;50.976;7.034;2022-09-06T01:13:42;18.60;99.90
30459;DHT22;17254;50.976;7.034;2022-09-06T01:14:25;18.50;99.90
30459;DHT22;17254;50.976;7.034;2022-09-06T01:15:10;18.40;99.90
30459;DHT22;17254;50.976;7.034;2022-09-06T01:15:50;18.50;99.90
30459;DHT22;17254;50.976;7.034;2022-09-06T01:16:31;18.40;99.90
30459;DHT22;17254;50.976;7.034;2022-09-06T01:17:14;18.40;99.90
30459;DHT22;17254;50.976;7.034;2022-09-06T01:17:57;18.40;99.90
30459;DHT22;17254;50.976;7.034;2022-09-06T01:18:40;18.40;99.90
30459;DHT22;17254;50.976;7.034;2022-09-06T01:19:44;18.40;99.90
30459;DHT22;17254;50.976;7.034;2022-09-06T01:20:46;18.40;99.90
30459;DHT22;17254;50.976;7.034;2022-09-06T01:21:32;18.40;99.90
30459;DHT22;17254;50.976;7.034;2022-09-06T01:22:18;18.40;99.90
30459;DHT22;17254;50.976;7.034;2022-09-06T01:25:35;18.20;99.90
30459;DHT22;17254;50.976;7.034;2022-09-06T01:27:38;18.20;99.90
30459;DHT22;17254;50.976;7.034;2022-09-06T01:28:32;18.20;99.90
30459;DHT22;17254;50.976;7.034;2022-09-06T01:29:06;18.30;99.90
30459;DHT22;17254;50.976;7.034;2022-09-06T01:29:44;18.30;99.90
30459;DHT22;17254;50.976;7.034;2022-09-06T01:30:19;18.30;99.90
30459;DHT22;17254;50.976;7.034;2022-09-06T01:30:56;18.30;99.90
30459;DHT22;17254;50.976;7.034;2022-09-06T01:31:32;18.30;99.90
30459;DHT22;17254;50.976;7.034;2022-09-06T01:32:10;18.30;99.90
30459;DHT22;17254;50.976;7.034;2022-09-06T01:32:50;18.40;99.90
30459;DHT22;17254;50.976;7.034;2022-09-06T01:33:30;18.30;99.90
30459;DHT22;17254;50.976;7.034;2022-09-06T01:34:18;18.30;99.90
30459;DHT22;17254;50.976;7.034;2022-09-06T01:34:54;18.30;99.90
30459;DHT22;17254;50.976;7.034;2022-09-06T01:35:32;18.20;99.90
30459;DHT22;17254;50.976;7.034;2022-09-06T01:36:08;18.20;99.90
30459;DHT22;17254;50.976;7.034;2022-09-06T01:36:45;18.30;99.90
30459;DHT22;17254;50.976;7.034;2022-09-06T01:37:19;18.30;99.90
30459;DHT22;17254;50.976;7.034;2022-09-06T01:37:53;18.30;99.90
30459;DHT22;17254;50.976;7.034;2022-09-06T01:38:24;18.30;99.90
30459;DHT22;17254;50.976;7.034;2022-09-06T01:38:56;18.30;99.90
30459;DHT22;17254;50.976;7.034;2022-09-06T01:39:31;18.40;99.90
30459;DHT22;17254;50.976;7.034;2022-09-06T01:40:03;18.30;99.90
30459;DHT22;17254;50.976;7.034;2022-09-06T01:40:35;18.30;99.90
30459;DHT22;17254;50.976;7.034;2022-09-06T01:41:06;18.20;99.90
30459;DHT22;17254;50.976;7.034;2022-09-06T01:41:37;18.30;99.90
30459;DHT22;17254;50.976;7.034;2022-09-06T01:42:11;18.20;99.90
30459;DHT22;17254;50.976;7.034;2022-09-06T01:42:45;18.20;99.90
30459;DHT22;17254;50.976;7.034;2022-09-06T01:43:22;18.20;99.90
30459;DHT22;17254;50.976;7.034;2022-09-06T01:43:54;18.20;99.90
30459;DHT22;17254;50.976;7.034;2022-09-06T01:44:27;18.20;99.90
30459;DHT22;17254;50.976;7.034;2022-09-06T01:45:01;18.20;99.90
30459;DHT22;17254;50.976;7.034;2022-09-06T01:45:42;18.20;99.90
30459;DHT22;17254;50.976;7.034;2022-09-06T01:46:22;18.20;99.90
30459;DHT22;17254;50.976;7.034;2022-09-06T01:47:03;18.20;99.90
30459;DHT22;17254;50.976;7.034;2022-09-06T01:47:43;18.20;99.90
30459;DHT22;17254;50.976;7.034;2022-09-06T01:48:21;18.20;99.90
30459;DHT22;17254;50.976;7.034;2022-09-06T01:49:08;18.20;99.90
30459;DHT22;17254;50.976;7.034;2022-09-06T01:49:54;18.20;99.90
30459;DHT22;17254;50.976;7.034;2022-09-06T01:50:53;18.10;99.90
30459;DHT22;17254;50.976;7.034;2022-09-06T01:51:31;18.10;99.90
30459;DHT22;17254;50.976;7.034;2022-09-06T01:52:13;18.10;99.90
30459;DHT22;17254;50.976;7.034;2022-09-06T01:52:54;18.10;99.90
30459;DHT22;17254;50.976;7.034;2022-09-06T01:53:50;18.10;99.90
30459;DHT22;17254;50.976;7.034;2022-09-06T01:54:35;18.10;99.90
30459;DHT22;17254;50.976;7.034;2022-09-06T01:55:15;18.10;99.90
30459;DHT22;17254;50.976;7.034;2022-09-06T01:55:59;18.00;99.90
30459;DHT22;17254;50.976;7.034;2022-09-06T01:56:38;18.10;99.90
30459;DHT22;17254;50.976;7.034;2022-09-06T01:57:22;18.00;99.90
30459;DHT22;17254;50.976;7.034;2022-09-06T01:58:18;18.00;99.90
30459;DHT22;17254;50.976;7.034;2022-09-06T01:59:05;18.00;99.90
30459;DHT22;17254;50.976;7.034;2022-09-06T01:59:59;18.00;99.90
30459;DHT22;17254;50.976;7.034;2022-09-06T02:00:36;18.00;99.90
30459;DHT22;17254;50.976;7.034;2022-09-06T02:01:18;18.00;99.90
30459;DHT22;17254;50.976;7.034;2022-09-06T02:01:58;18.00;99.90
30459;DHT22;17254;50.976;7.034;2022-09-06T02:02:39;18.00;99.90
30459;DHT22;17254;50.976;7.034;2022-09-06T02:03:18;18.00;99.90
30459;DHT22;17254;50.976;7.034;2022-09-06T02:04:00;18.00;99.90
30459;DHT22;17254;50.976;7.034;2022-09-06T02:04:40;17.90;99.90
30459;DHT22;17254;50.976;7.034;2022-09-06T02:05:19;17.90;99.90
30459;DHT22;17254;50.976;7.034;2022-09-06T02:05:54;17.90;99.90
30459;DHT22;17254;50.976;7.034;2022-09-06T02:06:28;17.90;99.90
30459;DHT22;17254;50.976;7.034;2022-09-06T02:07:04;17.90;99.90
30459;DHT22;17254;50.976;7.034;2022-09-06T02:07:38;17.90;99.90
30459;DHT22;17254;50.976;7.034;2022-09-06T02:08:14;17.90;99.90
30459;DHT22;17254;50.976;7.034;2022-09-06T02:08:48;17.80;99.90
30459;DHT22;17254;50.976;7.034;2022-09-06T02:09:23;17.80;99.90
30459;DHT22;17254;50.976;7.034;2022-09-06T02:09:59;17.80;99.90
30459;DHT22;17254;50.976;7.034;2022-09-06T02:10:36;17.80;99.90
30459;DHT22;17254;50.976;7.034;2022-09-06T02:11:11;17.80;99.90
30459;DHT22;17254;50.976;7.034;2022-09-06T02:11:48;17.70;99.90
30459;DHT22;17254;50.976;7.034;2022-09-06T02:12:22;17.80;99.90
30459;DHT22;17254;50.976;7.034;2022-09-06T02:12:58;17.70;99.90
30459;DHT22;17254;50.976;7.034;2022-09-06T02:13:33;17.80;99.90
30459;DHT22;17254;50.976;7.034;2022-09-06T02:14:10;17.80;99.90
30459;DHT22;17254;50.976;7.034;2022-09-06T02:14:47;17.80;99.90
30459;DHT22;17254;50.976;7.034;2022-09-06T02:15:22;17.70;99.90
30459;DHT22;17254;50.976;7.034;2022-09-06T02:15:58;17.70;99.90
30459;DHT22;17254;50.976;7.034;2022-09-06T02:16:33;17.70;99.90
30459;DHT22;17254;50.976;7.034;2022-09-06T02:17:06;17.70;99.90
30459;DHT22;17254;50.976;7.034;2022-09-06T02:17:44;17.70;99.90
30459;DHT22;17254;50.976;7.034;2022-09-06T02:18:21;17.70;99.90
30459;DHT22;17254;50.976;7.034;2022-09-06T02:18:57;17.70;99.90
30459;DHT22;17254;50.976;7.034;2022-09-06T02:19:33;17.70;99.90
30459;DHT22;17254;50.976;7.034;2022-09-06T02:20:09;17.70;99.90
30459;DHT22;17254;50.976;7.034;2022-09-06T02:20:48;17.70;99.90
30459;DHT22;17254;50.976;7.034;2022-09-06T02:21:25;17.70;99.90
30459;DHT22;17254;50.976;7.034;2022-09-06T02:21:58;17.70;99.90
30459;DHT22;17254;50.976;7.034;2022-09-06T02:22:34;17.70;99.90
30459;DHT22;17254;50.976;7.034;2022-09-06T02:23:09;17.70;99.90
30459;DHT22;17254;50.976;7.034;2022-09-06T02:23:42;17.70;99.90
30459;DHT22;17254;50.976;7.034;2022-09-06T02:24:18;17.80;99.90
30459;DHT22;17254;50.976;7.034;2022-09-06T02:24:52;17.80;99.90
30459;DHT22;17254;50.976;7.034;2022-09-06T02:25:30;17.90;99.90
30459;DHT22;17254;50.976;7.034;2022-09-06T02:26:05;17.90;99.90
30459;DHT22;17254;50.976;7.034;2022-09-06T02:26:39;17.90;99.90
30459;DHT22;17254;50.976;7.034;2022-09-06T02:27:12;18.00;99.90
30459;DHT22;17254;50.976;7.034;2022-09-06T02:27:44;17.90;99.90
30459;DHT22;17254;50.976;7.034;2022-09-06T02:28:15;17.90;99.90
30459;DHT22;17254;50.976;7.034;2022-09-06T02:28:49;17.80;99.90
30459;DHT22;17254;50.976;7.034;2022-09-06T02:29:20;17.80;99.90
30459;DHT22;17254;50.976;7.034;2022-09-06T02:29:51;17.80;99.90
30459;DHT22;17254;50.976;7.034;2022-09-06T02:30:23;17.80;99.90
30459;DHT22;17254;50.976;7.034;2022-09-06T02:30:57;17.70;99.90
30459;DHT22;17254;50.976;7.034;2022-09-06T02:31:31;17.70;99.90
30459;DHT22;17254;50.976;7.034;2022-09-06T02:32:08;17.70;99.90
30459;DHT22;17254;50.976;7.034;2022-09-06T02:32:44;17.70;99.90
30459;DHT22;17254;50.976;7.034;2022-09-06T02:33:20;17.70;99.90
30459;DHT22;17254;50.976;7.034;2022-09-06T02:33:54;17.70;99.90
30459;DHT22;17254;50.976;7.034;2022-09-06T02:34:26;17.70;99.90
30459;DHT22;17254;50.976;7.034;2022-09-06T02:34:58;17.70;99.90
30459;DHT22;17254;50.976;7.034;2022-09-06T02:35:42;17.70;99.90
30459;DHT22;17254;50.976;7.034;2022-09-06T02:36:13;17.70;99.90
30459;DHT22;17254;50.976;7.034;2022-09-06T02:36:46;17.60;99.90
30459;DHT22;17254;50.976;7.034;2022-09-06T02:37:17;17.60;99.90
30459;DHT22;17254;50.976;7.034;2022-09-06T02:37:49;17.60;99.90
30459;DHT22;17254;50.976;7.034;2022-09-06T02:38:23;17.60;99.90
30459;DHT22;17254;50.976;7.034;2022-09-06T02:38:54;17.60;99.90
30459;DHT22;17254;50.976;7.034;2022-09-06T02:39:25;17.60;99.90
30459;DHT22;17254;50.976;7.034;2022-09-06T02:39:57;17.60;99.90
30459;DHT22;17254;50.976;7.034;2022-09-06T02:40:29;17.60;99.90
30459;DHT22;17254;50.976;7.034;2022-09-06T02:41:01;17.60;99.90
30459;DHT22;17254;50.976;7.034;2022-09-06T02:41:34;17.70;99.90
30459;DHT22;17254;50.976;7.034;2022-09-06T02:42:05;17.70;99.90
30459;DHT22;17254;50.976;7.034;2022-09-06T02:42:39;17.70;99.90
30459;DHT22;17254;50.976;7.034;2022-09-06T02:43:11;17.80;99.90
30459;DHT22;17254;50.976;7.034;2022-09-06T02:43:42;17.80;99.90
30459;DHT22;17254;50.976;7.034;2022-09-06T02:44:14;17.70;99.90
30459;DHT22;17254;50.976;7.034;2022-09-06T02:44:46;17.70;99.90
30459;DHT22;17254;50.976;7.034;2022-09-06T02:45:17;17.70;99.90
30459;DHT22;17254;50.976;7.034;2022-09-06T02:45:48;17.70;99.90
30459;DHT22;17254;50.976;7.034;2022-09-06T02:46:20;17.70;99.90
30459;DHT22;17254;50.976;7.034;2022-09-06T02:46:53;17.70;99.90
30459;DHT22;17254;50.976;7.034;2022-09-06T02:47:24;17.60;99.90
30459;DHT22;17254;50.976;7.034;2022-09-06T02:47:56;17.60;99.90
30459;DHT22;17254;50.976;7.034;2022-09-06T02:48:27;17.60;99.90
30459;DHT22;17254;50.976;7.034;2022-09-06T02:48:58;17.60;99.90
30459;DHT22;17254;50.976;7.034;2022-09-06T02:49:30;17.60;99.90
30459;DHT22;17254;50.976;7.034;2022-09-06T02:50:01;17.60;99.90
30459;DHT22;17254;50.976;7.034;2022-09-06T02:50:32;17.60;99.90
30459;DHT22;17254;50.976;7.034;2022-09-06T02:51:06;17.70;99.90
30459;DHT22;17254;50.976;7.034;2022-09-06T02:51:38;17.70;99.90
30459;DHT22;17254;50.976;7.034;2022-09-06T02:52:09;17.80;99.90
30459;DHT22;17254;50.976;7.034;2022-09-06T02:52:41;17.80;99.90
30459;DHT22;17254;50.976;7.034;2022-09-06T02:53:13;17.70;99.90
30459;DHT22;17254;50.976;7.034;2022-09-06T02:53:44;17.80;99.90
30459;DHT22;17254;50.976;7.034;2022-09-06T02:54:15;17.80;99.90
30459;DHT22;17254;50.976;7.034;2022-09-06T02:54:47;17.80;99.90
30459;DHT22;17254;50.976;7.034;2022-09-06T02:55:18;17.80;99.90
30459;DHT22;17254;50.976;7.034;2022-09-06T02:55:49;17.80;99.90
30459;DHT22;17254;50.976;7.034;2022-09-06T02:56:21;17.90;99.90
30459;DHT22;17254;50.976;7.034;2022-09-06T02:56:52;17.80;99.90
30459;DHT22;17254;50.976;7.034;2022-09-06T02:57:23;17.80;99.90
30459;DHT22;17254;50.976;7.034;2022-09-06T02:57:55;17.80;99.90
30459;DHT22;17254;50.976;7.034;2022-09-06T02:58:27;17.80;99.90
30459;DHT22;17254;50.976;7.034;2022-09-06T02:58:59;17.80;99.90
30459;DHT22;17254;50.976;7.034;2022-09-06T02:59:32;17.80;99.90
30459;DHT22;17254;50.976;7.034;2022-09-06T03:00:04;17.80;99.90
30459;DHT22;17254;50.976;7.034;2022-09-06T03:00:35;17.80;99.90
30459;DHT22;17254;50.976;7.034;2022-09-06T03:01:07;17.80;99.90
30459;DHT22;17254;50.976;7.034;2022-09-06T03:01:38;17.70;99.90
30459;DHT22;17254;50.976;7.034;2022-09-06T03:02:09;17.70;99.90
30459;DHT22;17254;50.976;7.034;2022-09-06T03:02:41;17.70;99.90
30459;DHT22;17254;50.976;7.034;2022-09-06T03:03:12;17.70;99.90
30459;DHT22;17254;50.976;7.034;2022-09-06T03:03:44;17.70;99.90
30459;DHT22;17254;50.976;7.034;2022-09-06T03:04:16;17.70;99.90
30459;DHT22;17254;50.976;7.034;2022-09-06T03:04:47;17.70;99.90
30459;DHT22;17254;50.976;7.034;2022-09-06T03:05:18;17.70;99.90
30459;DHT22;17254;50.976;7.034;2022-09-06T03:05:51;17.70;99.90
30459;DHT22;17254;50.976;7.034;2022-09-06T03:06:23;17.70;99.90
30459;DHT22;17254;50.976;7.034;2022-09-06T03:06:54;17.70;99.90
30459;DHT22;17254;50.976;7.034;2022-09-06T03:07:27;17.70;99.90
30459;DHT22;17254;50.976;7.034;2022-09-06T03:07:58;17.70;99.90
30459;DHT22;17254;50.976;7.034;2022-09-06T03:08:29;17.70;99.90
30459;DHT22;17254;50.976;7.034;2022-09-06T03:09:03;17.70;99.90
30459;DHT22;17254;50.976;7.034;2022-09-06T03:09:34;17.70;99.90
30459;DHT22;17254;50.976;7.034;2022-09-06T03:10:06;17.70;99.90
30459;DHT22;17254;50.976;7.034;2022-09-06T03:10:38;17.70;99.90
30459;DHT22;17254;50.976;7.034;2022-09-06T03:11:09;17.60;99.90
30459;DHT22;17254;50.976;7.034;2022-09-06T03:11:40;17.60;99.90
30459;DHT22;17254;50.976;7.034;2022-09-06T03:12:12;17.60;99.90
30459;DHT22;17254;50.976;7.034;2022-09-06T03:12:43;17.60;99.90
30459;DHT22;17254;50.976;7.034;2022-09-06T03:13:15;17.60;99.90
30459;DHT22;17254;50.976;7.034;2022-09-06T03:13:46;17.60;99.90
30459;DHT22;17254;50.976;7.034;2022-09-06T03:14:18;17.60;99.90
30459;DHT22;17254;50.976;7.034;2022-09-06T03:14:50;17.60;99.90
30459;DHT22;17254;50.976;7.034;2022-09-06T03:15:21;17.70;99.90
30459;DHT22;17254;50.976;7.034;2022-09-06T03:15:55;17.70;99.90
30459;DHT22;17254;50.976;7.034;2022-09-06T03:16:26;17.70;99.90
30459;DHT22;17254;50.976;7.034;2022-09-06T03:16:57;17.70;99.90
30459;DHT22;17254;50.976;7.034;2022-09-06T03:17:29;17.70;99.90
30459;DHT22;17254;50.976;7.034;2022-09-06T03:18:00;17.70;99.90
30459;DHT22;17254;50.976;7.034;2022-09-06T03:18:32;17.70;99.90
30459;DHT22;17254;50.976;7.034;2022-09-06T03:19:03;17.70;99.90
30459;DHT22;17254;50.976;7.034;2022-09-06T03:19:35;17.70;99.90
30459;DHT22;17254;50.976;7.034;2022-09-06T03:20:07;17.70;99.90
30459;DHT22;17254;50.976;7.034;2022-09-06T03:20:39;17.70;99.90
30459;DHT22;17254;50.976;7.034;2022-09-06T03:21:11;17.70;99.90
30459;DHT22;17254;50.976;7.034;2022-09-06T03:21:42;17.60;99.90
30459;DHT22;17254;50.976;7.034;2022-09-06T03:22:13;17.60;99.90
30459;DHT22;17254;50.976;7.034;2022-09-06T03:22:45;17.70;99.90
30459;DHT22;17254;50.976;7.034;2022-09-06T03:23:16;17.70;99.90
30459;DHT22;17254;50.976;7.034;2022-09-06T03:23:48;17.60;99.90
30459;DHT22;17254;50.976;7.034;2022-09-06T03:24:20;17.60;99.90
30459;DHT22;17254;50.976;7.034;2022-09-06T03:24:51;17.70;99.90
30459;DHT22;17254;50.976;7.034;2022-09-06T03:25:22;17.60;99.90
30459;DHT22;17254;50.976;7.034;2022-09-06T03:25:55;17.60;99.90
30459;DHT22;17254;50.976;7.034;2022-09-06T03:26:26;17.60;99.90
30459;DHT22;17254;50.976;7.034;2022-09-06T03:26:57;17.60;99.90
30459;DHT22;17254;50.976;7.034;2022-09-06T03:27:29;17.60;99.90
30459;DHT22;17254;50.976;7.034;2022-09-06T03:28:00;17.70;99.90
30459;DHT22;17254;50.976;7.034;2022-09-06T03:28:32;17.70;99.90
30459;DHT22;17254;50.976;7.034;2022-09-06T03:29:04;17.70;99.90
30459;DHT22;17254;50.976;7.034;2022-09-06T03:29:35;17.60;99.90
30459;DHT22;17254;50.976;7.034;2022-09-06T03:30:09;17.60;99.90
30459;DHT22;17254;50.976;7.034;2022-09-06T03:30:43;17.60;99.90
30459;DHT22;17254;50.976;7.034;2022-09-06T03:31:15;17.70;99.90
30459;DHT22;17254;50.976;7.034;2022-09-06T03:31:46;17.70;99.90
30459;DHT22;17254;50.976;7.034;2022-09-06T03:32:17;17.60;99.90
30459;DHT22;17254;50.976;7.034;2022-09-06T03:32:49;17.60;99.90
30459;DHT22;17254;50.976;7.034;2022-09-06T03:33:20;17.60;99.90
30459;DHT22;17254;50.976;7.034;2022-09-06T03:33:51;17.60;99.90
30459;DHT22;17254;50.976;7.034;2022-09-06T03:34:23;17.50;99.90
30459;DHT22;17254;50.976;7.034;2022-09-06T03:34:54;17.50;99.90
30459;DHT22;17254;50.976;7.034;2022-09-06T03:35:25;17.50;99.90
30459;DHT22;17254;50.976;7.034;2022-09-06T03:35:59;17.50;99.90
30459;DHT22;17254;50.976;7.034;2022-09-06T03:36:30;17.50;99.90
30459;DHT22;17254;50.976;7.034;2022-09-06T03:37:02;17.60;99.90
30459;DHT22;17254;50.976;7.034;2022-09-06T03:37:33;17.60;99.90
30459;DHT22;17254;50.976;7.034;2022-09-06T03:38:05;17.60;99.90
30459;DHT22;17254;50.976;7.034;2022-09-06T03:38:37;17.60;99.90
30459;DHT22;17254;50.976;7.034;2022-09-06T03:39:08;17.60;99.90
30459;DHT22;17254;50.976;7.034;2022-09-06T03:39:39;17.70;99.90
30459;DHT22;17254;50.976;7.034;2022-09-06T03:40:11;17.60;99.90
30459;DHT22;17254;50.976;7.034;2022-09-06T03:40:44;17.60;99.90